createdAt,value
2023-05-22T00:03:51.903Z,27.87
2023-05-22T00:08:55.092Z,33.70
2023-05-22T00:13:57.025Z,33.83
2023-05-22T00:18:58.756Z,33.50
2023-05-22T00:24:02.029Z,28.80
2023-05-22T00:29:03.900Z,29.25
2023-05-22T00:34:05.706Z,30.23
2023-05-22T00:39:08.847Z,29.08
2023-05-22T00:44:10.672Z,30.60
2023-05-22T00:49:12.422Z,30.88
2023-05-22T00:54:16.532Z,29.98
2023-05-22T00:59:18.863Z,33.67
2023-05-22T01:04:20.795Z,35.17
2023-05-22T01:09:23.976Z,35.88
2023-05-22T01:14:33.804Z,32.15
2023-05-22T01:19:53.023Z,36.45
2023-05-22T01:25:14.441Z,36.53
2023-05-22T01:30:42.715Z,30.77
2023-05-22T01:35:48.063Z,32.95
2023-05-22T01:40:58.533Z,33.03
2023-05-22T01:46:01.729Z,40.12
2023-05-22T01:51:09.938Z,37.85
2023-05-22T01:56:16.441Z,39.80
2023-05-22T02:01:22.307Z,32.72
2023-05-22T02:06:27.364Z,33.60
2023-05-22T02:11:31.334Z,38.03
2023-05-22T02:16:34.646Z,36.70
2023-05-22T02:21:39.475Z,37.78
2023-05-22T02:26:41.258Z,38.63
2023-05-22T02:31:44.323Z,38.42
2023-05-22T02:36:46.497Z,38.70
2023-05-22T02:41:48.228Z,31.17
2023-05-22T02:46:51.330Z,33.35
2023-05-22T02:51:53.121Z,36.08
2023-05-22T02:56:54.871Z,38.65
2023-05-22T03:01:57.962Z,35.60
2023-05-22T03:06:59.801Z,31.52
2023-05-22T03:12:01.544Z,36.45
2023-05-22T03:17:05.068Z,37.38
2023-05-22T03:22:06.828Z,31.42
2023-05-22T03:27:08.627Z,33.05
2023-05-22T03:32:11.814Z,31.10
2023-05-22T03:37:13.547Z,34.25
2023-05-22T03:42:15.274Z,35.53
2023-05-22T03:47:18.398Z,35.13
2023-05-22T03:52:20.194Z,29.67
2023-05-22T03:57:21.935Z,31.12
2023-05-22T04:02:25.139Z,29.27
2023-05-22T04:07:30.043Z,30.33
2023-05-22T04:12:31.764Z,29.12
2023-05-22T04:17:39.020Z,32.58
2023-05-22T04:22:40.938Z,31.12
2023-05-22T04:27:42.835Z,30.35
2023-05-22T04:32:46.065Z,28.67
2023-05-22T04:37:47.916Z,29.10
2023-05-22T04:42:49.616Z,31.77
2023-05-22T04:47:52.772Z,32.67
2023-05-22T04:52:54.575Z,34.72
2023-05-22T04:57:56.526Z,36.85
2023-05-22T05:02:59.692Z,32.38
2023-05-22T05:08:01.901Z,35.30
2023-05-22T05:13:03.982Z,33.35
2023-05-22T05:18:10.883Z,33.88
2023-05-22T05:23:12.706Z,28.73
2023-05-22T05:28:14.529Z,31.92
2023-05-22T05:33:19.040Z,31.92
2023-05-22T05:38:20.771Z,35.37
2023-05-22T05:43:22.481Z,30.00
2023-05-22T05:48:27.308Z,35.03
2023-05-22T05:53:29.335Z,30.10
2023-05-22T05:58:31.053Z,30.83
2023-05-22T06:03:34.260Z,31.83
2023-05-22T06:08:36.043Z,31.87
2023-05-22T06:13:37.733Z,26.80
2023-05-22T06:18:40.868Z,26.75
2023-05-22T06:23:42.612Z,27.08
2023-05-22T06:28:44.747Z,30.95
2023-05-22T06:33:47.991Z,25.33
2023-05-22T06:38:49.786Z,25.00
2023-05-22T06:43:51.502Z,25.62
2023-05-22T06:48:54.547Z,28.45
2023-05-22T06:54:07.012Z,26.02
2023-05-22T06:59:10.476Z,24.63
2023-05-22T07:04:13.618Z,24.42
2023-05-22T07:09:15.331Z,27.60
2023-05-22T07:14:21.168Z,25.55
2023-05-22T07:19:24.506Z,29.23
2023-05-22T07:24:27.304Z,24.05
2023-05-22T07:29:29.166Z,21.50
2023-05-22T07:34:32.388Z,20.40
2023-05-22T07:39:34.133Z,21.48
2023-05-22T07:44:35.957Z,22.37
2023-05-22T07:49:38.987Z,25.33
2023-05-22T07:54:42.363Z,19.62
2023-05-22T07:59:45.325Z,20.40
2023-05-22T08:04:48.576Z,20.62
2023-05-22T08:09:50.313Z,20.75
2023-05-22T08:14:52.104Z,21.75
2023-05-22T08:19:55.298Z,19.60
2023-05-22T08:24:57.202Z,20.27
2023-05-22T08:29:58.948Z,22.08
2023-05-22T08:35:02.562Z,20.88
2023-05-22T08:40:05.558Z,21.65
2023-05-22T08:45:08.066Z,21.20
2023-05-22T08:50:12.208Z,18.85
2023-05-22T08:55:14.216Z,18.67
2023-05-22T09:00:22.856Z,20.60
2023-05-22T09:05:26.012Z,20.52
2023-05-22T09:10:27.978Z,20.92
2023-05-22T09:15:31.464Z,21.83
2023-05-22T09:20:38.018Z,20.40
2023-05-22T09:25:41.818Z,19.42
2023-05-22T09:30:47.929Z,22.08
2023-05-22T09:36:03.841Z,20.15
2023-05-22T09:41:06.052Z,21.20
2023-05-22T09:46:07.830Z,18.58
2023-05-22T09:51:12.019Z,21.87
2023-05-22T09:56:17.469Z,20.52
2023-05-22T10:01:23.872Z,22.65
2023-05-22T10:06:27.791Z,24.55
2023-05-22T10:11:31.654Z,22.43
2023-05-22T10:16:35.621Z,22.80
2023-05-22T10:21:41.287Z,25.73
2023-05-22T10:26:44.139Z,25.45
2023-05-22T10:31:55.057Z,24.35
2023-05-22T10:37:17.033Z,23.12
2023-05-22T10:42:22.236Z,28.55
2023-05-22T10:47:26.000Z,27.33
2023-05-22T10:52:29.467Z,23.73
2023-05-22T10:57:33.126Z,26.30
2023-05-22T11:02:39.511Z,25.48
2023-05-22T11:07:45.595Z,24.80
2023-05-22T11:12:47.428Z,31.73
2023-05-22T11:17:49.308Z,24.85
2023-05-22T11:23:02.118Z,25.60
2023-05-22T11:28:10.395Z,25.55
2023-05-22T11:33:12.926Z,23.95
2023-05-22T11:38:17.558Z,24.95
2023-05-22T11:43:28.668Z,23.10
2023-05-22T11:48:30.905Z,23.90
2023-05-22T11:53:34.946Z,23.85
2023-05-22T11:58:36.750Z,26.00
2023-05-22T12:04:11.716Z,23.65
2023-05-22T12:09:15.014Z,23.40
2023-05-22T12:14:49.003Z,24.60
2023-05-22T12:19:50.792Z,24.30
2023-05-22T12:24:53.896Z,23.17
2023-05-22T12:29:56.455Z,22.17
2023-05-22T12:34:58.446Z,22.20
2023-05-22T12:40:05.552Z,24.58
2023-05-22T12:45:08.549Z,22.80
2023-05-22T12:50:10.722Z,21.67
2023-05-22T12:55:13.952Z,21.35
2023-05-22T13:00:16.414Z,22.52
2023-05-22T13:05:18.335Z,21.77
2023-05-22T13:10:21.815Z,22.30
2023-05-22T13:15:23.760Z,22.20
2023-05-22T13:20:25.659Z,22.33
2023-05-22T13:25:28.796Z,22.87
2023-05-22T13:30:30.780Z,21.58
2023-05-22T13:35:32.648Z,26.12
2023-05-22T13:40:35.824Z,22.50
2023-05-22T13:45:37.816Z,20.27
2023-05-22T13:50:42.877Z,19.10
2023-05-22T13:55:47.582Z,20.37
2023-05-22T14:00:49.555Z,21.50
2023-05-22T14:05:51.348Z,19.27
2023-05-22T14:10:54.452Z,22.08
2023-05-22T14:15:56.252Z,19.37
2023-05-22T14:20:58.207Z,17.77
2023-05-22T14:26:01.420Z,20.27
2023-05-22T14:31:03.320Z,20.58
2023-05-22T14:36:05.601Z,18.73
2023-05-22T14:41:08.759Z,20.70
2023-05-22T14:46:11.183Z,18.98
2023-05-22T14:51:13.164Z,19.85
2023-05-22T14:56:16.482Z,18.37
2023-05-22T15:01:18.243Z,20.92
2023-05-22T15:06:20.041Z,26.95
2023-05-22T15:11:23.155Z,19.30
2023-05-22T15:16:24.963Z,21.08
2023-05-22T15:21:26.729Z,19.67
2023-05-22T15:26:29.994Z,23.55
2023-05-22T15:31:31.895Z,19.80
2023-05-22T15:36:49.167Z,18.87
2023-05-22T15:42:05.294Z,20.33
2023-05-22T15:47:08.494Z,19.00
2023-05-22T15:52:10.368Z,19.17
2023-05-22T15:57:13.621Z,24.40
2023-05-22T16:02:15.619Z,18.75
2023-05-22T16:07:17.352Z,20.25
2023-05-22T16:12:20.497Z,17.45
2023-05-22T16:17:22.276Z,16.23
2023-05-22T16:22:30.376Z,16.80
2023-05-22T16:27:39.721Z,16.30
2023-05-22T16:32:41.556Z,19.48
2023-05-22T16:37:43.293Z,16.73
2023-05-22T16:42:46.504Z,16.83
2023-05-22T16:47:48.289Z,16.87
2023-05-22T16:52:52.526Z,25.60
2023-05-22T16:57:55.840Z,26.67
2023-05-22T17:02:57.858Z,25.77
2023-05-22T17:08:02.317Z,23.65
2023-05-22T17:13:05.706Z,26.87
2023-05-22T17:18:07.520Z,30.90
2023-05-22T17:23:09.338Z,30.75
2023-05-22T17:28:12.504Z,29.92
2023-05-22T17:33:14.359Z,32.17
2023-05-22T17:38:16.153Z,36.65
2023-05-22T17:43:19.368Z,34.47
2023-05-22T17:48:21.099Z,32.25
2023-05-22T17:53:22.848Z,33.05
2023-05-22T17:58:26.206Z,36.60
2023-05-22T18:03:27.950Z,32.85
2023-05-22T18:08:29.787Z,40.12
2023-05-22T18:13:32.837Z,31.15
2023-05-22T18:18:34.647Z,29.05
2023-05-22T18:23:36.452Z,25.67
2023-05-22T18:28:39.582Z,23.40
2023-05-22T18:33:41.248Z,25.48
2023-05-22T18:38:42.995Z,25.02
2023-05-22T18:43:46.018Z,23.00
2023-05-22T18:48:47.759Z,22.73
2023-05-22T18:53:49.435Z,22.62
2023-05-22T18:58:52.513Z,22.62
2023-05-22T19:03:54.236Z,22.52
2023-05-22T19:08:55.922Z,23.08
2023-05-22T19:13:59.046Z,22.37
2023-05-22T19:19:00.850Z,23.10
2023-05-22T19:24:02.563Z,22.27
2023-05-22T19:29:05.650Z,21.80
2023-05-22T19:34:07.348Z,24.10
2023-05-22T19:39:09.154Z,24.77
2023-05-22T19:44:12.284Z,28.27
2023-05-22T19:49:14.159Z,23.67
2023-05-22T19:54:16.002Z,24.75
2023-05-22T19:59:19.218Z,25.48
2023-05-22T20:04:21.004Z,30.00
2023-05-22T20:09:22.792Z,32.08
2023-05-22T20:14:26.050Z,38.03
2023-05-22T20:19:28.311Z,39.67
2023-05-22T20:24:30.366Z,44.63
2023-05-22T20:29:33.474Z,75.03
2023-05-22T20:34:35.381Z,78.03
2023-05-22T20:39:37.228Z,73.32
2023-05-22T20:44:40.439Z,99.32
2023-05-22T20:49:42.235Z,111.80
2023-05-22T20:54:46.394Z,106.05
2023-05-22T20:59:49.562Z,103.30
2023-05-22T21:04:51.382Z,114.07
2023-05-22T21:09:53.090Z,113.20
2023-05-22T21:14:56.622Z,105.28
2023-05-22T21:19:58.591Z,105.28
2023-05-22T21:25:02.892Z,93.97
2023-05-22T21:30:07.229Z,103.57
2023-05-22T21:35:09.877Z,119.13
2023-05-22T21:40:12.580Z,108.85
2023-05-22T21:45:15.663Z,104.03
2023-05-22T21:50:17.561Z,85.20
2023-05-22T21:55:19.290Z,125.05
2023-05-22T22:00:22.578Z,117.43
2023-05-22T22:05:24.407Z,120.20
2023-05-22T22:10:26.147Z,122.90
2023-05-22T22:15:29.212Z,122.75
2023-05-22T22:20:43.376Z,146.48
2023-05-22T22:25:46.687Z,119.40
2023-05-22T22:30:49.802Z,132.75
2023-05-22T22:35:51.515Z,159.05
2023-05-22T22:40:53.210Z,129.82
2023-05-22T22:45:56.454Z,140.30
2023-05-22T22:50:58.218Z,147.35
2023-05-22T22:56:01.242Z,122.85
2023-05-22T23:01:04.367Z,119.05
2023-05-22T23:06:06.281Z,133.73
2023-05-22T23:11:07.988Z,136.57
2023-05-22T23:16:11.114Z,145.32
2023-05-22T23:21:12.941Z,136.18
2023-05-22T23:26:14.693Z,127.60
2023-05-22T23:31:18.056Z,108.87
2023-05-22T23:36:20.072Z,112.05
2023-05-22T23:41:21.995Z,111.97
2023-05-22T23:46:25.294Z,105.75
2023-05-22T23:51:27.167Z,112.32
2023-05-22T23:56:29.011Z,107.18
